createdAt,value
2023-04-21T00:00:50.413Z,0.00
2023-04-21T00:01:50.441Z,0.00
2023-04-21T00:02:50.534Z,0.00
2023-04-21T00:03:50.581Z,0.00
2023-04-21T00:04:50.500Z,0.00
2023-04-21T00:05:50.450Z,0.00
2023-04-21T00:06:50.382Z,0.00
2023-04-21T00:07:50.377Z,0.00
2023-04-21T00:08:50.356Z,0.00
2023-04-21T00:09:50.354Z,0.00
2023-04-21T00:10:50.325Z,0.00
2023-04-21T00:11:50.340Z,0.00
2023-04-21T00:12:50.302Z,0.00
2023-04-21T00:13:50.318Z,0.00
2023-04-21T00:14:50.316Z,0.00
2023-04-21T00:15:50.327Z,0.00
2023-04-21T00:16:50.304Z,0.00
2023-04-21T00:17:50.278Z,0.00
2023-04-21T00:18:50.240Z,0.00
2023-04-21T00:19:50.252Z,0.00
2023-04-21T00:20:50.250Z,0.00
2023-04-21T00:21:51.281Z,0.00
2023-04-21T00:22:50.245Z,0.00
2023-04-21T00:23:50.280Z,0.00
2023-04-21T00:24:50.215Z,0.00
2023-04-21T00:25:50.181Z,0.00
2023-04-21T00:26:50.197Z,0.00
2023-04-21T00:27:50.202Z,0.00
2023-04-21T00:28:50.179Z,0.00
2023-04-21T00:29:50.154Z,0.00
2023-04-21T00:30:50.145Z,0.00
2023-04-21T00:31:50.261Z,0.00
2023-04-21T00:32:50.169Z,0.00
2023-04-21T00:33:50.174Z,0.00
2023-04-21T00:34:50.119Z,0.00
2023-04-21T00:35:50.138Z,0.00
2023-04-21T00:36:50.120Z,0.00
2023-04-21T00:37:50.151Z,0.00
2023-04-21T00:38:50.125Z,0.00
2023-04-21T00:39:50.088Z,0.00
2023-04-21T00:40:50.069Z,0.00
2023-04-21T00:41:50.067Z,0.00
2023-04-21T00:42:50.744Z,0.00
2023-04-21T00:43:50.081Z,0.00
2023-04-21T00:44:50.120Z,0.00
2023-04-21T00:45:50.058Z,0.00
2023-04-21T00:46:50.095Z,0.00
2023-04-21T00:47:50.257Z,0.00
2023-04-21T00:48:50.026Z,0.00
2023-04-21T00:49:50.064Z,0.00
2023-04-21T00:50:50.016Z,0.00
2023-04-21T00:51:49.990Z,0.00
2023-04-21T00:52:49.991Z,0.00
2023-04-21T00:53:49.978Z,0.00
2023-04-21T00:54:50.771Z,0.00
2023-04-21T00:55:50.079Z,0.00
2023-04-21T00:56:49.990Z,0.00
2023-04-21T00:57:49.959Z,0.00
2023-04-21T00:58:49.948Z,0.00
2023-04-21T00:59:49.972Z,0.00
2023-04-21T01:00:50.080Z,0.00
2023-04-21T01:01:49.955Z,0.00
2023-04-21T01:02:50.148Z,0.00
2023-04-21T01:03:50.167Z,0.00
2023-04-21T01:04:49.961Z,0.00
2023-04-21T01:05:49.912Z,0.00
2023-04-21T01:06:49.917Z,0.00
2023-04-21T01:07:49.878Z,0.00
2023-04-21T01:08:49.911Z,0.00
2023-04-21T01:09:49.875Z,0.00
2023-04-21T01:10:50.755Z,0.00
2023-04-21T01:11:49.906Z,0.00
2023-04-21T01:12:49.863Z,0.00
2023-04-21T01:13:49.865Z,0.00
2023-04-21T01:14:49.828Z,0.00
2023-04-21T01:15:49.888Z,0.00
2023-04-21T01:16:49.872Z,0.00
2023-04-21T01:17:50.021Z,0.00
2023-04-21T01:18:49.803Z,0.00
2023-04-21T01:19:49.801Z,0.00
2023-04-21T01:20:49.817Z,0.00
2023-04-21T01:21:49.790Z,0.00
2023-04-21T01:22:49.936Z,0.00
2023-04-21T01:23:50.653Z,0.00
2023-04-21T01:24:50.652Z,0.00
2023-04-21T01:25:49.765Z,0.00
2023-04-21T01:26:49.755Z,0.00
2023-04-21T01:27:49.752Z,0.00
2023-04-21T01:28:49.736Z,0.00
2023-04-21T01:29:49.803Z,0.00
2023-04-21T01:30:49.716Z,0.00
2023-04-21T01:31:49.808Z,0.00
2023-04-21T01:32:49.737Z,0.00
2023-04-21T01:33:50.715Z,0.00
2023-04-21T01:34:49.694Z,0.00
2023-04-21T01:35:49.722Z,0.00
2023-04-21T01:36:50.262Z,0.00
2023-04-21T01:37:49.690Z,0.00
2023-04-21T01:38:49.664Z,0.00
2023-04-21T01:39:49.642Z,0.00
2023-04-21T01:40:49.650Z,0.00
2023-04-21T01:41:49.624Z,0.00
2023-04-21T01:42:49.672Z,0.00
2023-04-21T01:43:49.637Z,0.00
2023-04-21T01:44:49.679Z,0.00
2023-04-21T01:45:49.681Z,0.00
2023-04-21T01:46:49.645Z,0.00
2023-04-21T01:47:49.624Z,0.00
2023-04-21T01:48:49.623Z,0.00
2023-04-21T01:49:50.617Z,0.00
2023-04-21T01:50:49.578Z,0.00
2023-04-21T01:51:49.567Z,0.00
2023-04-21T01:52:49.561Z,0.00
2023-04-21T01:53:50.153Z,0.00
2023-04-21T01:54:49.576Z,0.00
2023-04-21T01:55:49.580Z,0.00
2023-04-21T01:56:49.575Z,0.00
2023-04-21T01:57:50.163Z,0.00
2023-04-21T01:58:49.524Z,0.00
2023-04-21T01:59:49.557Z,0.00
2023-04-21T02:00:49.508Z,0.00
2023-04-21T02:01:49.646Z,0.00
2023-04-21T02:02:49.572Z,0.00
2023-04-21T02:03:49.739Z,0.00
2023-04-21T02:04:49.491Z,0.00
2023-04-21T02:05:49.467Z,0.00
2023-04-21T02:06:49.447Z,0.00
2023-04-21T02:07:49.450Z,0.00
2023-04-21T02:08:49.441Z,0.00
2023-04-21T02:09:49.452Z,0.00
2023-04-21T02:10:49.445Z,0.00
2023-04-21T02:11:50.291Z,0.00
2023-04-21T02:12:49.464Z,0.00
2023-04-21T02:13:50.306Z,0.00
2023-04-21T02:14:49.401Z,0.00
2023-04-21T02:15:50.420Z,0.00
2023-04-21T02:16:49.459Z,0.00
2023-04-21T02:17:49.454Z,0.00
2023-04-21T02:18:49.354Z,0.00
2023-04-21T02:19:50.152Z,0.00
2023-04-21T02:20:49.352Z,0.00
2023-04-21T02:21:49.325Z,0.00
2023-04-21T02:22:49.356Z,0.00
2023-04-21T02:23:49.336Z,0.00
2023-04-21T02:24:49.297Z,0.00
2023-04-21T02:25:49.304Z,0.00
2023-04-21T02:26:49.333Z,0.00
2023-04-21T02:27:49.305Z,0.00
2023-04-21T02:28:49.280Z,0.00
2023-04-21T02:29:49.288Z,0.00
2023-04-21T02:30:49.395Z,0.00
2023-04-21T02:32:00.829Z,0.00
2023-04-21T02:32:51.345Z,0.00
2023-04-21T02:33:49.252Z,0.00
2023-04-21T02:34:50.158Z,0.00
2023-04-21T02:35:49.240Z,0.00
2023-04-21T02:36:49.225Z,0.00
2023-04-21T02:37:49.239Z,0.00
2023-04-21T02:38:49.202Z,0.00
2023-04-21T02:39:49.203Z,0.00
2023-04-21T02:40:49.207Z,0.00
2023-04-21T02:41:49.175Z,0.00
2023-04-21T02:42:49.189Z,0.00
2023-04-21T02:43:50.166Z,0.00
2023-04-21T02:44:49.165Z,0.00
2023-04-21T02:45:49.146Z,0.00
2023-04-21T02:46:49.213Z,0.00
2023-04-21T02:47:49.182Z,0.00
2023-04-21T02:48:49.141Z,0.00
2023-04-21T02:49:49.137Z,0.00
2023-04-21T02:50:49.805Z,0.00
2023-04-21T02:51:49.116Z,0.00
2023-04-21T02:52:49.155Z,0.00
2023-04-21T02:53:49.074Z,0.00
2023-04-21T02:54:49.094Z,0.00
2023-04-21T02:55:49.073Z,0.00
2023-04-21T02:56:49.075Z,0.00
2023-04-21T02:57:49.099Z,0.00
2023-04-21T02:58:49.053Z,0.00
2023-04-21T02:59:49.046Z,0.00
2023-04-21T03:00:49.082Z,0.00
2023-04-21T03:01:49.046Z,0.00
2023-04-21T03:02:49.194Z,0.00
2023-04-21T03:03:49.073Z,0.00
2023-04-21T03:04:49.051Z,0.00
2023-04-21T03:05:49.024Z,0.00
2023-04-21T03:06:48.980Z,0.00
2023-04-21T03:07:48.995Z,0.00
2023-04-21T03:08:48.957Z,0.00
2023-04-21T03:09:48.962Z,0.00
2023-04-21T03:10:48.984Z,0.00
2023-04-21T03:11:48.999Z,0.00
2023-04-21T03:12:48.941Z,0.00
2023-04-21T03:13:48.992Z,0.00
2023-04-21T03:14:48.939Z,0.00
2023-04-21T03:15:48.950Z,0.00
2023-04-21T03:17:21.682Z,0.00
2023-04-21T03:17:48.950Z,0.00
2023-04-21T03:18:48.898Z,0.00
2023-04-21T03:19:48.893Z,0.00
2023-04-21T03:20:48.906Z,0.00
2023-04-21T03:21:48.922Z,0.00
2023-04-21T03:22:48.894Z,0.00
2023-04-21T03:23:49.795Z,0.00
2023-04-21T03:24:48.850Z,0.00
2023-04-21T03:25:48.865Z,0.00
2023-04-21T03:26:48.866Z,0.00
2023-04-21T03:27:48.867Z,0.00
2023-04-21T03:28:49.841Z,0.00
2023-04-21T03:29:48.849Z,0.00
2023-04-21T03:30:48.897Z,0.00
2023-04-21T03:31:48.864Z,0.00
2023-04-21T03:32:48.845Z,0.00
2023-04-21T03:33:49.689Z,0.00
2023-04-21T03:34:49.779Z,0.00
2023-04-21T03:35:48.835Z,0.00
2023-04-21T03:36:48.801Z,0.00
2023-04-21T03:37:48.802Z,0.00
2023-04-21T03:38:48.788Z,0.00
2023-04-21T03:39:48.789Z,0.00
2023-04-21T03:40:48.801Z,0.00
2023-04-21T03:41:48.735Z,0.00
2023-04-21T03:42:48.723Z,0.00
2023-04-21T03:43:48.711Z,0.00
2023-04-21T03:44:48.743Z,0.00
2023-04-21T03:45:48.794Z,0.00
2023-04-21T03:46:48.696Z,0.00
2023-04-21T04:02:51.827Z,0.00
2023-04-21T04:03:51.716Z,0.00
2023-04-21T04:04:51.718Z,0.00
2023-04-21T04:05:52.761Z,0.00
2023-04-21T04:06:52.731Z,0.00
2023-04-21T04:07:52.741Z,5.62
2023-04-21T04:08:52.715Z,5.62
2023-04-21T04:09:52.721Z,5.62
2023-04-21T04:10:52.703Z,5.62
2023-04-21T04:11:52.690Z,5.62
2023-04-21T04:12:52.696Z,11.25
2023-04-21T04:13:52.679Z,11.25
2023-04-21T04:14:52.664Z,11.25
2023-04-21T04:15:52.715Z,11.25
2023-04-21T04:16:52.662Z,16.88
2023-04-21T04:17:52.731Z,16.88
2023-04-21T04:18:52.654Z,16.88
2023-04-21T04:19:52.657Z,16.88
2023-04-21T04:20:52.638Z,22.50
2023-04-21T04:21:52.624Z,22.50
2023-04-21T04:22:52.629Z,28.12
2023-04-21T04:23:52.596Z,28.12
2023-04-21T04:24:52.628Z,33.75
2023-04-21T04:25:52.566Z,39.38
2023-04-21T04:26:52.580Z,39.38
2023-04-21T04:27:52.582Z,39.38
2023-04-21T04:28:52.563Z,45.00
2023-04-21T04:29:52.567Z,45.00
2023-04-21T04:30:53.371Z,50.62
2023-04-21T04:31:53.348Z,56.25
2023-04-21T04:32:52.560Z,61.88
2023-04-21T04:33:54.979Z,67.50
2023-04-21T04:34:53.526Z,78.75
2023-04-21T04:35:52.515Z,84.38
2023-04-21T04:36:52.505Z,90.00
2023-04-21T04:37:52.519Z,95.62
2023-04-21T04:38:52.497Z,101.25
2023-04-21T04:39:52.465Z,101.25
2023-04-21T04:40:52.531Z,106.88
2023-04-21T04:41:52.469Z,106.88
2023-04-21T04:42:52.509Z,112.50
2023-04-21T04:43:52.446Z,112.50
2023-04-21T04:44:52.421Z,112.50
2023-04-21T04:45:52.406Z,118.12
2023-04-21T04:46:53.449Z,118.12
2023-04-21T04:47:52.501Z,118.12
2023-04-21T04:48:52.402Z,118.12
2023-04-21T04:49:52.394Z,123.75
2023-04-21T04:50:52.376Z,123.75
2023-04-21T04:51:52.376Z,123.75
2023-04-21T04:52:52.456Z,129.38
2023-04-21T04:53:52.352Z,129.38
2023-04-21T04:54:52.360Z,129.38
2023-04-21T04:55:52.359Z,129.38
2023-04-21T04:56:52.330Z,129.38
2023-04-21T04:57:52.324Z,135.00
2023-04-21T04:58:52.348Z,135.00
2023-04-21T04:59:52.312Z,140.62
2023-04-21T05:00:52.294Z,146.25
2023-04-21T05:01:52.317Z,151.88
2023-04-21T05:02:52.411Z,163.12
2023-04-21T05:03:52.383Z,168.75
2023-04-21T05:04:52.412Z,174.38
2023-04-21T05:05:52.266Z,180.00
2023-04-21T05:06:52.254Z,185.62
2023-04-21T05:07:52.249Z,191.25
2023-04-21T05:08:52.261Z,196.88
2023-04-21T05:09:52.253Z,275.62
2023-04-21T05:10:52.221Z,433.12
2023-04-21T05:11:52.211Z,416.25
2023-04-21T05:12:52.192Z,309.38
2023-04-21T05:13:52.259Z,371.25
2023-04-21T05:14:52.237Z,540.00
2023-04-21T05:15:52.198Z,871.88
2023-04-21T05:16:52.252Z,871.88
2023-04-21T05:17:52.210Z,618.75
2023-04-21T05:18:52.162Z,360.00
2023-04-21T05:19:52.170Z,281.25
2023-04-21T05:20:52.195Z,258.75
2023-04-21T05:21:52.140Z,236.25
2023-04-21T05:22:52.141Z,230.62
2023-04-21T05:23:52.163Z,213.75
2023-04-21T05:24:52.134Z,213.75
2023-04-21T05:25:52.196Z,219.38
2023-04-21T05:26:52.156Z,230.62
2023-04-21T05:27:52.112Z,241.88
2023-04-21T05:28:52.082Z,253.12
2023-04-21T05:29:52.069Z,264.38
2023-04-21T05:30:52.091Z,275.62
2023-04-21T05:31:52.121Z,286.88
2023-04-21T05:32:52.103Z,292.50
2023-04-21T05:33:52.084Z,315.00
2023-04-21T05:34:52.026Z,360.00
2023-04-21T05:35:52.051Z,343.12
2023-04-21T05:36:52.066Z,337.50
2023-04-21T05:37:52.119Z,309.38
2023-04-21T05:38:52.011Z,298.12
2023-04-21T05:39:52.009Z,292.50
2023-04-21T05:40:51.976Z,292.50
2023-04-21T05:41:51.994Z,286.88
2023-04-21T05:42:51.971Z,286.88
2023-04-21T05:43:52.076Z,292.50
2023-04-21T05:44:51.970Z,303.75
2023-04-21T05:45:51.959Z,315.00
2023-04-21T05:46:51.994Z,309.38
2023-04-21T05:47:52.053Z,298.12
2023-04-21T05:48:51.947Z,292.50
2023-04-21T05:49:51.917Z,292.50
2023-04-21T05:50:51.928Z,303.75
2023-04-21T05:51:51.970Z,326.25
2023-04-21T05:52:51.971Z,354.38
2023-04-21T05:53:51.922Z,382.50
2023-04-21T05:54:51.882Z,393.75
2023-04-21T05:55:51.890Z,410.62
2023-04-21T05:56:51.878Z,444.38
2023-04-21T05:57:51.874Z,545.62
2023-04-21T05:58:51.851Z,770.62
2023-04-21T05:59:51.855Z,1518.75
2023-04-21T06:00:51.847Z,1355.62
2023-04-21T06:01:51.817Z,1113.75
2023-04-21T06:02:52.064Z,1361.25
2023-04-21T06:03:51.901Z,1698.75
2023-04-21T06:04:51.928Z,1378.12
2023-04-21T06:05:51.883Z,1231.88
2023-04-21T06:06:51.871Z,1704.38
2023-04-21T06:07:51.826Z,1766.25
2023-04-21T06:08:51.803Z,1501.88
2023-04-21T06:09:51.835Z,1063.12
2023-04-21T06:10:51.828Z,1299.38
2023-04-21T06:11:51.774Z,1603.12
2023-04-21T06:12:52.367Z,1591.88
2023-04-21T06:13:51.786Z,1693.12
2023-04-21T06:14:51.761Z,2649.38
2023-04-21T06:15:51.767Z,2913.75
2023-04-21T06:16:51.727Z,2615.62
2023-04-21T06:17:51.721Z,2885.62
2023-04-21T06:18:51.711Z,2688.75
2023-04-21T06:19:51.724Z,2835.00
2023-04-21T06:20:51.687Z,2351.25
2023-04-21T06:21:51.678Z,2390.62
2023-04-21T06:22:51.681Z,2683.12
2023-04-21T06:23:51.647Z,2311.88
2023-04-21T06:24:51.657Z,1141.88
2023-04-21T06:25:51.664Z,720.00
2023-04-21T06:26:51.657Z,601.88
2023-04-21T06:27:51.633Z,562.50
2023-04-21T06:28:51.610Z,551.25
2023-04-21T06:29:51.626Z,585.00
2023-04-21T06:30:51.616Z,652.50
2023-04-21T06:31:51.699Z,618.75
2023-04-21T06:32:51.624Z,624.38
2023-04-21T06:33:51.593Z,725.62
2023-04-21T06:34:51.576Z,804.38
2023-04-21T06:35:51.584Z,871.88
2023-04-21T06:36:51.547Z,1153.12
2023-04-21T06:37:51.575Z,1575.00
2023-04-21T06:38:51.529Z,1586.25
2023-04-21T06:39:51.543Z,1344.38
2023-04-21T06:40:51.553Z,1040.62
2023-04-21T06:41:51.522Z,961.88
2023-04-21T06:42:51.505Z,956.25
2023-04-21T06:43:51.520Z,984.38
2023-04-21T06:44:51.485Z,787.50
2023-04-21T06:45:51.513Z,765.00
2023-04-21T06:46:51.509Z,748.12
2023-04-21T06:47:51.551Z,641.25
2023-04-21T06:48:51.460Z,607.50
2023-04-21T06:49:51.450Z,568.12
2023-04-21T06:50:51.491Z,568.12
2023-04-21T06:51:51.433Z,568.12
2023-04-21T06:52:51.439Z,568.12
2023-04-21T06:53:51.422Z,568.12
2023-04-21T06:54:51.419Z,573.75
2023-04-21T06:55:51.428Z,596.25
2023-04-21T06:56:51.439Z,618.75
2023-04-21T06:57:51.441Z,624.38
2023-04-21T06:58:51.398Z,641.25
2023-04-21T06:59:51.382Z,675.00
2023-04-21T07:00:51.450Z,815.62
2023-04-21T07:01:51.356Z,1141.88
2023-04-21T07:02:51.520Z,961.88
2023-04-21T07:03:51.374Z,1051.88
2023-04-21T07:04:51.405Z,1428.75
2023-04-21T07:05:51.342Z,1299.38
2023-04-21T07:06:51.364Z,1186.88
2023-04-21T07:07:51.296Z,849.38
2023-04-21T07:08:51.346Z,781.88
2023-04-21T07:09:51.283Z,804.38
2023-04-21T07:10:51.288Z,787.50
2023-04-21T07:11:51.289Z,793.12
2023-04-21T07:12:51.306Z,815.62
2023-04-21T07:13:51.272Z,911.25
2023-04-21T07:14:51.254Z,1035.00
2023-04-21T07:15:51.262Z,1310.62
2023-04-21T07:16:51.297Z,1209.38
2023-04-21T07:17:51.340Z,1074.38
2023-04-21T07:18:51.244Z,1738.12
2023-04-21T07:19:51.287Z,2835.00
2023-04-21T07:20:51.229Z,3166.88
2023-04-21T07:21:51.239Z,3290.62
2023-04-21T07:22:51.196Z,3290.62
2023-04-21T07:23:51.259Z,3133.12
2023-04-21T07:24:51.450Z,3206.25
2023-04-21T07:25:51.158Z,3296.25
2023-04-21T07:26:51.140Z,3150.00
2023-04-21T07:27:51.154Z,2981.25
2023-04-21T07:28:51.143Z,2953.12
2023-04-21T07:29:51.170Z,2868.75
2023-04-21T07:30:51.217Z,3245.62
2023-04-21T07:31:51.116Z,2643.75
2023-04-21T07:32:51.123Z,2632.50
2023-04-21T07:33:51.132Z,3082.50
2023-04-21T07:34:51.112Z,3116.25
2023-04-21T07:35:51.095Z,2435.62
2023-04-21T07:36:51.072Z,2812.50
2023-04-21T07:37:51.132Z,3037.50
2023-04-21T07:38:51.169Z,2570.62
2023-04-21T07:39:51.081Z,3071.25
2023-04-21T07:40:51.177Z,2199.38
2023-04-21T07:41:51.032Z,3313.12
2023-04-21T07:42:51.041Z,3110.62
2023-04-21T07:43:53.180Z,2919.38
2023-04-21T07:44:52.021Z,2773.12
2023-04-21T07:45:51.068Z,2953.12
2023-04-21T07:46:51.019Z,3234.38
2023-04-21T07:47:51.029Z,2632.50
2023-04-21T07:48:50.998Z,3144.38
2023-04-21T07:49:50.980Z,2638.12
2023-04-21T07:50:50.994Z,2925.00
2023-04-21T07:51:51.104Z,2829.38
2023-04-21T07:52:50.962Z,2655.00
2023-04-21T07:53:51.178Z,2210.62
2023-04-21T07:54:50.935Z,2373.75
2023-04-21T07:55:50.935Z,2250.00
2023-04-21T07:57:22.874Z,2131.88
2023-04-21T07:57:50.929Z,2497.50
2023-04-21T07:58:50.900Z,3009.38
2023-04-21T07:59:50.971Z,3121.88
2023-04-21T08:00:51.098Z,3976.88
2023-04-21T08:01:50.901Z,4145.62
2023-04-21T08:02:51.899Z,4185.00
2023-04-21T08:03:50.897Z,4111.88
2023-04-21T08:04:50.930Z,4038.75
2023-04-21T08:05:51.166Z,3819.38
2023-04-21T08:06:50.877Z,3645.00
2023-04-21T08:07:50.865Z,3560.62
2023-04-21T08:08:50.839Z,3802.50
2023-04-21T08:09:50.841Z,3476.25
2023-04-21T08:10:50.817Z,3678.75
2023-04-21T08:11:50.820Z,3678.75
2023-04-21T08:12:50.830Z,3723.75
2023-04-21T08:13:50.827Z,3858.75
2023-04-21T08:14:50.821Z,3954.38
2023-04-21T08:15:50.890Z,3988.12
2023-04-21T08:16:50.977Z,4044.38
2023-04-21T08:17:50.840Z,4038.75
2023-04-21T08:18:50.797Z,3982.50
2023-04-21T08:19:50.795Z,3836.25
2023-04-21T08:20:50.754Z,3746.25
2023-04-21T08:21:50.814Z,3886.88
2023-04-21T08:22:50.752Z,4005.00
2023-04-21T08:23:50.778Z,3898.12
2023-04-21T08:24:50.736Z,3909.38
2023-04-21T08:25:50.725Z,3796.88
2023-04-21T08:26:50.693Z,3650.62
2023-04-21T08:27:50.717Z,3498.75
2023-04-21T08:28:50.698Z,3487.50
2023-04-21T08:29:50.707Z,3555.00
2023-04-21T08:30:50.706Z,3656.25
2023-04-21T08:31:50.724Z,3898.12
2023-04-21T08:32:50.760Z,3960.00
2023-04-21T08:34:01.167Z,3976.88
2023-04-21T08:34:52.658Z,3656.25
2023-04-21T08:36:02.385Z,3453.75
2023-04-21T08:36:52.655Z,3616.88
2023-04-21T08:37:51.671Z,3701.25
2023-04-21T08:38:51.671Z,3723.75
2023-04-21T08:39:50.631Z,4089.38
2023-04-21T08:40:50.597Z,4095.00
2023-04-21T08:41:50.628Z,3639.38
2023-04-21T08:42:50.585Z,3616.88
2023-04-21T08:43:50.579Z,3999.38
2023-04-21T08:44:50.579Z,4100.62
2023-04-21T08:45:50.604Z,4111.88
2023-04-21T08:46:50.606Z,4128.75
2023-04-21T08:47:50.565Z,4145.62
2023-04-21T08:48:51.398Z,4190.62
2023-04-21T08:49:50.544Z,2221.88
2023-04-21T08:50:50.526Z,3982.50
2023-04-21T08:51:50.542Z,3881.25
2023-04-21T08:52:50.520Z,3903.75
2023-04-21T08:53:50.524Z,3853.12
2023-04-21T08:54:50.492Z,3403.12
2023-04-21T08:55:59.592Z,990.00
2023-04-21T08:56:58.936Z,3841.88
2023-04-21T08:57:51.507Z,3960.00
2023-04-21T08:58:50.525Z,3813.75
2023-04-21T08:59:50.456Z,3588.75
2023-04-21T09:00:50.499Z,2508.75
2023-04-21T09:01:50.532Z,916.88
2023-04-21T09:02:59.421Z,1063.12
2023-04-21T09:03:52.660Z,3065.62
2023-04-21T09:04:50.862Z,5197.50
2023-04-21T09:05:50.710Z,5315.62
2023-04-21T09:06:50.464Z,6052.50
2023-04-21T09:07:50.398Z,3999.38
2023-04-21T09:08:50.397Z,2002.50
2023-04-21T09:09:50.375Z,1805.62
2023-04-21T09:10:51.242Z,1625.62
2023-04-21T09:11:50.359Z,1665.00
2023-04-21T09:12:50.388Z,961.88
2023-04-21T09:13:50.373Z,905.62
2023-04-21T09:14:50.386Z,1316.25
2023-04-21T09:15:50.353Z,1237.50
2023-04-21T09:16:50.337Z,1153.12
2023-04-21T09:17:50.388Z,843.75
2023-04-21T09:18:50.345Z,956.25
2023-04-21T09:19:50.381Z,1141.88
2023-04-21T09:20:50.327Z,928.12
2023-04-21T09:21:50.305Z,1057.50
2023-04-21T09:22:50.330Z,1513.12
2023-04-21T09:23:50.366Z,1153.12
2023-04-21T09:24:50.254Z,1400.62
2023-04-21T09:25:50.259Z,798.75
2023-04-21T09:26:50.244Z,843.75
2023-04-21T09:27:50.241Z,804.38
2023-04-21T09:28:50.251Z,781.88
2023-04-21T09:29:50.228Z,821.25
2023-04-21T09:30:50.264Z,866.25
2023-04-21T09:31:50.271Z,1068.75
2023-04-21T09:32:50.257Z,1220.62
2023-04-21T09:33:57.662Z,697.50
2023-04-21T09:34:52.226Z,652.50
2023-04-21T09:35:50.205Z,669.38
2023-04-21T09:36:50.191Z,686.25
2023-04-21T09:37:50.171Z,742.50
2023-04-21T09:38:50.227Z,793.12
2023-04-21T09:40:03.668Z,736.88
2023-04-21T09:40:52.169Z,748.12
2023-04-21T09:41:50.131Z,753.75
2023-04-21T09:42:50.112Z,1040.62
2023-04-21T09:43:50.182Z,1451.25
2023-04-21T09:44:55.380Z,956.25
2023-04-21T09:45:52.112Z,1096.88
2023-04-21T09:46:50.352Z,1299.38
2023-04-21T09:47:50.124Z,933.75
2023-04-21T09:48:50.049Z,1350.00
2023-04-21T09:49:50.121Z,1254.38
2023-04-21T09:52:16.715Z,1046.25
2023-04-21T09:52:52.039Z,708.75
2023-04-21T09:53:50.037Z,748.12
2023-04-21T09:54:50.062Z,826.88
2023-04-21T09:55:50.034Z,1153.12
2023-04-21T09:56:50.042Z,1231.88
2023-04-21T09:57:50.106Z,1130.62
2023-04-21T09:58:50.098Z,742.50
2023-04-21T09:59:49.991Z,770.62
2023-04-21T10:00:50.013Z,860.62
2023-04-21T10:01:50.029Z,781.88
2023-04-21T10:02:50.148Z,691.88
2023-04-21T10:03:50.125Z,725.62
2023-04-21T10:04:50.170Z,675.00
2023-04-21T10:05:50.007Z,663.75
2023-04-21T10:06:49.936Z,686.25
2023-04-21T10:07:49.933Z,725.62
2023-04-21T10:08:49.908Z,697.50
2023-04-21T10:09:49.937Z,663.75
2023-04-21T10:10:49.896Z,691.88
2023-04-21T10:11:49.897Z,753.75
2023-04-21T10:12:49.897Z,849.38
2023-04-21T10:13:49.871Z,765.00
2023-04-21T10:14:49.969Z,1080.00
2023-04-21T10:15:49.986Z,1063.12
2023-04-21T10:16:49.886Z,1040.62
2023-04-21T10:17:49.897Z,1040.62
2023-04-21T10:18:49.866Z,860.62
2023-04-21T10:19:49.825Z,759.38
2023-04-21T10:21:21.772Z,787.50
2023-04-21T10:22:22.856Z,810.00
2023-04-21T10:23:21.762Z,832.50
2023-04-21T10:24:22.502Z,787.50
2023-04-21T10:25:22.490Z,720.00
2023-04-21T10:25:49.789Z,691.88
2023-04-21T10:27:21.740Z,646.88
2023-04-21T10:27:49.847Z,658.12
2023-04-21T10:29:22.531Z,725.62
2023-04-21T10:29:56.704Z,821.25
2023-04-21T10:30:51.767Z,849.38
2023-04-21T10:31:49.792Z,770.62
2023-04-21T10:32:49.770Z,832.50
2023-04-21T10:33:49.743Z,787.50
2023-04-21T10:34:49.732Z,810.00
2023-04-21T10:35:49.716Z,798.75
2023-04-21T10:36:49.713Z,759.38
2023-04-21T10:37:49.695Z,765.00
2023-04-21T10:38:49.700Z,793.12
2023-04-21T10:39:49.723Z,821.25
2023-04-21T10:40:49.680Z,860.62
2023-04-21T10:41:49.661Z,871.88
2023-04-21T10:42:49.675Z,933.75
2023-04-21T10:43:50.010Z,894.38
2023-04-21T10:44:50.669Z,900.00
2023-04-21T10:45:49.648Z,888.75
2023-04-21T10:46:49.647Z,888.75
2023-04-21T10:47:49.739Z,832.50
2023-04-21T10:48:49.650Z,821.25
2023-04-21T10:50:21.547Z,821.25
2023-04-21T10:50:49.628Z,855.00
2023-04-21T10:51:49.673Z,855.00
2023-04-21T10:52:49.598Z,770.62
2023-04-21T10:53:49.651Z,691.88
2023-04-21T10:54:49.580Z,669.38
2023-04-21T10:55:49.595Z,663.75
2023-04-21T10:56:49.557Z,652.50
2023-04-21T10:57:49.592Z,663.75
2023-04-21T10:58:49.575Z,686.25
2023-04-21T10:59:49.592Z,720.00
2023-04-21T11:00:49.606Z,810.00
2023-04-21T11:01:49.522Z,900.00
2023-04-21T11:02:49.606Z,866.25
2023-04-21T11:03:49.704Z,703.12
2023-04-21T11:04:49.739Z,663.75
2023-04-21T11:05:49.484Z,731.25
2023-04-21T11:06:49.486Z,680.62
2023-04-21T11:07:49.698Z,663.75
2023-04-21T11:08:49.471Z,675.00
2023-04-21T11:09:49.483Z,669.38
2023-04-21T11:10:49.534Z,781.88
2023-04-21T11:11:50.144Z,759.38
2023-04-21T11:12:50.132Z,753.75
2023-04-21T11:13:49.431Z,781.88
2023-04-21T11:14:50.171Z,742.50
2023-04-21T11:15:49.453Z,742.50
2023-04-21T11:16:49.414Z,849.38
2023-04-21T11:17:49.451Z,765.00
2023-04-21T11:18:49.379Z,860.62
2023-04-21T11:19:50.055Z,815.62
2023-04-21T11:20:49.379Z,826.88
2023-04-21T11:21:49.360Z,804.38
2023-04-21T11:22:50.152Z,776.25
2023-04-21T11:23:49.370Z,748.12
2023-04-21T11:24:49.345Z,736.88
2023-04-21T11:25:50.860Z,742.50
2023-04-21T11:26:50.375Z,736.88
2023-04-21T11:27:49.323Z,736.88
2023-04-21T11:28:49.330Z,742.50
2023-04-21T11:29:49.333Z,742.50
2023-04-21T11:30:50.205Z,736.88
2023-04-21T11:31:49.299Z,708.75
2023-04-21T11:32:49.287Z,680.62
2023-04-21T11:33:49.264Z,613.12
2023-04-21T11:34:49.265Z,635.62
2023-04-21T11:35:49.277Z,506.25
2023-04-21T11:36:49.283Z,663.75
2023-04-21T11:37:49.246Z,675.00
2023-04-21T11:38:49.292Z,686.25
2023-04-21T11:39:49.264Z,691.88
2023-04-21T11:40:49.224Z,708.75
2023-04-21T11:41:49.232Z,720.00
2023-04-21T11:42:49.206Z,618.75
2023-04-21T11:43:49.191Z,540.00
2023-04-21T11:44:49.187Z,663.75
2023-04-21T11:45:49.248Z,703.12
2023-04-21T11:46:49.486Z,703.12
2023-04-21T11:47:49.238Z,663.75
2023-04-21T11:48:49.203Z,714.38
2023-04-21T11:49:49.187Z,686.25
2023-04-21T11:50:49.197Z,787.50
2023-04-21T11:51:49.161Z,787.50
2023-04-21T11:52:49.140Z,776.25
2023-04-21T11:53:49.137Z,765.00
2023-04-21T11:54:49.135Z,798.75
2023-04-21T11:55:49.114Z,826.88
2023-04-21T11:56:49.112Z,826.88
2023-04-21T11:57:49.135Z,815.62
2023-04-21T11:58:49.079Z,804.38
2023-04-21T11:59:49.090Z,793.12
2023-04-21T12:00:49.094Z,748.12
2023-04-21T12:01:49.055Z,787.50
2023-04-21T12:02:49.150Z,776.25
2023-04-21T12:03:49.225Z,748.12
2023-04-21T12:04:49.188Z,736.88
2023-04-21T12:05:49.085Z,720.00
2023-04-21T12:06:49.046Z,506.25
2023-04-21T12:07:49.020Z,511.88
2023-04-21T12:08:49.042Z,680.62
2023-04-21T12:09:49.031Z,646.88
2023-04-21T12:10:49.008Z,646.88
2023-04-21T12:11:49.735Z,607.50
2023-04-21T12:12:49.968Z,585.00
2023-04-21T12:13:48.974Z,551.25
2023-04-21T12:14:49.020Z,444.38
2023-04-21T12:15:49.085Z,450.00
2023-04-21T12:16:49.071Z,489.38
2023-04-21T12:17:49.045Z,472.50
2023-04-21T12:18:48.996Z,506.25
2023-04-21T12:19:48.939Z,450.00
2023-04-21T12:20:48.898Z,455.62
2023-04-21T12:21:48.929Z,466.88
2023-04-21T12:22:48.903Z,489.38
2023-04-21T12:23:48.928Z,528.75
2023-04-21T12:24:48.898Z,562.50
2023-04-21T12:25:48.870Z,545.62
2023-04-21T12:26:48.884Z,545.62
2023-04-21T12:27:48.873Z,495.00
2023-04-21T12:28:48.874Z,483.75
2023-04-21T12:29:49.043Z,478.12
2023-04-21T12:30:48.857Z,500.62
2023-04-21T12:31:49.006Z,596.25
2023-04-21T12:32:48.970Z,613.12
2023-04-21T12:33:48.841Z,635.62
2023-04-21T12:34:48.817Z,433.12
2023-04-21T12:35:48.805Z,416.25
2023-04-21T12:36:48.815Z,405.00
2023-04-21T12:37:48.838Z,410.62
2023-04-21T12:38:48.801Z,421.88
2023-04-21T12:39:48.802Z,444.38
2023-04-21T12:40:48.825Z,461.25
2023-04-21T12:41:48.841Z,466.88
2023-04-21T12:42:48.825Z,438.75
2023-04-21T12:43:48.747Z,438.75
2023-04-21T12:44:48.753Z,433.12
2023-04-21T12:45:48.790Z,421.88
2023-04-21T12:46:48.805Z,410.62
2023-04-21T12:47:48.761Z,416.25
2023-04-21T12:48:48.732Z,421.88
2023-04-21T12:49:48.714Z,433.12
2023-04-21T12:50:48.766Z,444.38
2023-04-21T12:51:48.750Z,410.62
2023-04-21T12:52:48.693Z,410.62
2023-04-21T12:53:48.671Z,416.25
2023-04-21T12:54:48.690Z,450.00